sensor_id;sensor_type;location;lat;lon;timestamp;P1;durP1;ratioP1;P2;durP2;ratioP2
16127;SDS011;8168;49.036;7.690;2023-11-21T00:00:14;1.30;;;1.20;;
16127;SDS011;8168;49.036;7.690;2023-11-21T00:02:46;3.70;;;1.10;;
16127;SDS011;8168;49.036;7.690;2023-11-21T00:05:17;2.83;;;1.47;;
16127;SDS011;8168;49.036;7.690;2023-11-21T00:07:48;1.37;;;1.20;;
16127;SDS011;8168;49.036;7.690;2023-11-21T00:10:18;1.13;;;0.80;;
16127;SDS011;8168;49.036;7.690;2023-11-21T00:12:49;2.90;;;0.93;;
16127;SDS011;8168;49.036;7.690;2023-11-21T00:15:19;1.47;;;0.70;;
16127;SDS011;8168;49.036;7.690;2023-11-21T00:17:50;3.60;;;1.00;;
16127;SDS011;8168;49.036;7.690;2023-11-21T00:20:20;1.90;;;0.90;;
16127;SDS011;8168;49.036;7.690;2023-11-21T00:22:51;1.00;;;0.70;;
16127;SDS011;8168;49.036;7.690;2023-11-21T00:25:22;1.30;;;0.73;;
16127;SDS011;8168;49.036;7.690;2023-11-21T00:27:53;1.43;;;0.80;;
16127;SDS011;8168;49.036;7.690;2023-11-21T00:30:24;1.00;;;0.80;;
16127;SDS011;8168;49.036;7.690;2023-11-21T00:32:54;1.10;;;0.90;;
16127;SDS011;8168;49.036;7.690;2023-11-21T00:35:25;3.27;;;0.80;;
16127;SDS011;8168;49.036;7.690;2023-11-21T00:37:55;1.63;;;1.07;;
16127;SDS011;8168;49.036;7.690;2023-11-21T00:40:27;0.87;;;0.67;;
16127;SDS011;8168;49.036;7.690;2023-11-21T00:42:58;1.10;;;0.70;;
16127;SDS011;8168;49.036;7.690;2023-11-21T00:45:28;1.67;;;1.00;;
16127;SDS011;8168;49.036;7.690;2023-11-21T00:47:59;1.10;;;0.80;;
16127;SDS011;8168;49.036;7.690;2023-11-21T00:50:30;1.30;;;1.00;;
16127;SDS011;8168;49.036;7.690;2023-11-21T00:53:00;3.13;;;0.70;;
16127;SDS011;8168;49.036;7.690;2023-11-21T00:55:32;1.57;;;0.80;;
16127;SDS011;8168;49.036;7.690;2023-11-21T00:58:03;2.13;;;0.90;;
16127;SDS011;8168;49.036;7.690;2023-11-21T01:00:34;2.27;;;0.63;;
16127;SDS011;8168;49.036;7.690;2023-11-21T01:03:05;3.17;;;1.10;;
16127;SDS011;8168;49.036;7.690;2023-11-21T01:05:37;2.83;;;0.90;;
16127;SDS011;8168;49.036;7.690;2023-11-21T01:08:08;1.20;;;1.03;;
16127;SDS011;8168;49.036;7.690;2023-11-21T01:10:38;2.53;;;0.60;;
16127;SDS011;8168;49.036;7.690;2023-11-21T01:13:09;2.20;;;1.00;;
16127;SDS011;8168;49.036;7.690;2023-11-21T01:15:40;0.87;;;0.80;;
16127;SDS011;8168;49.036;7.690;2023-11-21T01:18:11;1.50;;;0.87;;
16127;SDS011;8168;49.036;7.690;2023-11-21T01:20:42;5.10;;;1.00;;
16127;SDS011;8168;49.036;7.690;2023-11-21T01:23:15;1.50;;;1.10;;
16127;SDS011;8168;49.036;7.690;2023-11-21T01:25:46;1.23;;;0.73;;
16127;SDS011;8168;49.036;7.690;2023-11-21T01:28:16;1.37;;;0.73;;
16127;SDS011;8168;49.036;7.690;2023-11-21T01:30:47;1.67;;;1.20;;
16127;SDS011;8168;49.036;7.690;2023-11-21T01:33:18;3.07;;;0.93;;
16127;SDS011;8168;49.036;7.690;2023-11-21T01:35:49;0.97;;;0.90;;
16127;SDS011;8168;49.036;7.690;2023-11-21T01:38:21;2.43;;;1.10;;
16127;SDS011;8168;49.036;7.690;2023-11-21T01:40:52;2.07;;;0.73;;
16127;SDS011;8168;49.036;7.690;2023-11-21T01:43:22;2.50;;;1.03;;
16127;SDS011;8168;49.036;7.690;2023-11-21T01:45:54;2.63;;;1.13;;
16127;SDS011;8168;49.036;7.690;2023-11-21T01:48:27;1.47;;;1.17;;
16127;SDS011;8168;49.036;7.690;2023-11-21T01:50:58;3.70;;;0.90;;
16127;SDS011;8168;49.036;7.690;2023-11-21T01:53:29;0.80;;;0.80;;
16127;SDS011;8168;49.036;7.690;2023-11-21T01:55:59;1.87;;;1.10;;
16127;SDS011;8168;49.036;7.690;2023-11-21T01:58:30;2.13;;;1.10;;
16127;SDS011;8168;49.036;7.690;2023-11-21T02:01:02;1.50;;;1.10;;
16127;SDS011;8168;49.036;7.690;2023-11-21T02:03:33;1.43;;;1.33;;
16127;SDS011;8168;49.036;7.690;2023-11-21T02:06:03;1.30;;;1.07;;
16127;SDS011;8168;49.036;7.690;2023-11-21T02:08:35;1.20;;;0.90;;
16127;SDS011;8168;49.036;7.690;2023-11-21T02:11:07;2.37;;;1.20;;
16127;SDS011;8168;49.036;7.690;2023-11-21T02:13:39;1.63;;;1.20;;
16127;SDS011;8168;49.036;7.690;2023-11-21T02:16:13;1.20;;;1.10;;
16127;SDS011;8168;49.036;7.690;2023-11-21T02:18:43;1.30;;;1.20;;
16127;SDS011;8168;49.036;7.690;2023-11-21T02:21:14;1.50;;;1.30;;
16127;SDS011;8168;49.036;7.690;2023-11-21T02:23:45;2.30;;;1.30;;
16127;SDS011;8168;49.036;7.690;2023-11-21T02:26:16;2.27;;;1.10;;
16127;SDS011;8168;49.036;7.690;2023-11-21T02:28:47;3.03;;;1.30;;
16127;SDS011;8168;49.036;7.690;2023-11-21T02:31:17;2.10;;;1.40;;
16127;SDS011;8168;49.036;7.690;2023-11-21T02:33:49;1.57;;;1.20;;
16127;SDS011;8168;49.036;7.690;2023-11-21T02:36:19;4.57;;;1.83;;
16127;SDS011;8168;49.036;7.690;2023-11-21T02:38:51;5.07;;;1.20;;
16127;SDS011;8168;49.036;7.690;2023-11-21T02:41:22;1.40;;;1.30;;
16127;SDS011;8168;49.036;7.690;2023-11-21T02:43:52;4.57;;;1.60;;
16127;SDS011;8168;49.036;7.690;2023-11-21T02:46:23;2.50;;;1.30;;
16127;SDS011;8168;49.036;7.690;2023-11-21T02:48:54;5.60;;;1.37;;
16127;SDS011;8168;49.036;7.690;2023-11-21T02:51:24;1.30;;;1.20;;
16127;SDS011;8168;49.036;7.690;2023-11-21T02:53:55;4.73;;;1.37;;
16127;SDS011;8168;49.036;7.690;2023-11-21T02:56:30;4.00;;;1.73;;
16127;SDS011;8168;49.036;7.690;2023-11-21T02:59:01;1.50;;;1.40;;
16127;SDS011;8168;49.036;7.690;2023-11-21T03:01:32;2.33;;;1.50;;
16127;SDS011;8168;49.036;7.690;2023-11-21T03:04:02;1.53;;;1.43;;
16127;SDS011;8168;49.036;7.690;2023-11-21T03:06:33;3.07;;;1.60;;
16127;SDS011;8168;49.036;7.690;2023-11-21T03:09:04;1.67;;;1.30;;
16127;SDS011;8168;49.036;7.690;2023-11-21T03:11:36;1.30;;;1.20;;
16127;SDS011;8168;49.036;7.690;2023-11-21T03:14:07;3.30;;;1.50;;
16127;SDS011;8168;49.036;7.690;2023-11-21T03:16:38;3.00;;;1.50;;
16127;SDS011;8168;49.036;7.690;2023-11-21T03:19:08;1.63;;;1.43;;
16127;SDS011;8168;49.036;7.690;2023-11-21T03:21:39;2.37;;;1.70;;
16127;SDS011;8168;49.036;7.690;2023-11-21T03:24:09;3.50;;;1.80;;
16127;SDS011;8168;49.036;7.690;2023-11-21T03:26:40;2.80;;;1.50;;
16127;SDS011;8168;49.036;7.690;2023-11-21T03:29:11;3.83;;;1.60;;
16127;SDS011;8168;49.036;7.690;2023-11-21T03:31:41;3.60;;;1.80;;
16127;SDS011;8168;49.036;7.690;2023-11-21T03:34:23;1.93;;;1.63;;
16127;SDS011;8168;49.036;7.690;2023-11-21T03:36:56;2.50;;;1.60;;
16127;SDS011;8168;49.036;7.690;2023-11-21T03:39:26;1.77;;;1.63;;
16127;SDS011;8168;49.036;7.690;2023-11-21T03:41:57;1.40;;;1.30;;
16127;SDS011;8168;49.036;7.690;2023-11-21T03:44:27;1.77;;;1.40;;
16127;SDS011;8168;49.036;7.690;2023-11-21T03:46:58;1.77;;;1.47;;
16127;SDS011;8168;49.036;7.690;2023-11-21T03:49:29;2.10;;;1.53;;
16127;SDS011;8168;49.036;7.690;2023-11-21T03:51:59;3.43;;;1.60;;
16127;SDS011;8168;49.036;7.690;2023-11-21T03:54:30;3.53;;;1.70;;
16127;SDS011;8168;49.036;7.690;2023-11-21T03:57:00;3.10;;;1.50;;
16127;SDS011;8168;49.036;7.690;2023-11-21T03:59:31;1.40;;;1.23;;
16127;SDS011;8168;49.036;7.690;2023-11-21T04:02:01;2.23;;;1.40;;
16127;SDS011;8168;49.036;7.690;2023-11-21T04:04:32;1.40;;;1.30;;
16127;SDS011;8168;49.036;7.690;2023-11-21T04:07:03;5.73;;;1.57;;
16127;SDS011;8168;49.036;7.690;2023-11-21T04:09:37;1.47;;;1.23;;
16127;SDS011;8168;49.036;7.690;2023-11-21T04:12:08;2.13;;;1.30;;
16127;SDS011;8168;49.036;7.690;2023-11-21T04:14:41;1.70;;;1.60;;
16127;SDS011;8168;49.036;7.690;2023-11-21T04:17:12;2.93;;;1.30;;
16127;SDS011;8168;49.036;7.690;2023-11-21T04:19:42;1.73;;;1.60;;
16127;SDS011;8168;49.036;7.690;2023-11-21T04:22:13;3.00;;;1.80;;
16127;SDS011;8168;49.036;7.690;2023-11-21T04:24:43;4.13;;;1.77;;
16127;SDS011;8168;49.036;7.690;2023-11-21T04:27:14;1.80;;;1.47;;
16127;SDS011;8168;49.036;7.690;2023-11-21T04:29:45;2.30;;;1.80;;
16127;SDS011;8168;49.036;7.690;2023-11-21T04:32:15;1.70;;;1.60;;
16127;SDS011;8168;49.036;7.690;2023-11-21T04:34:46;2.07;;;1.80;;
16127;SDS011;8168;49.036;7.690;2023-11-21T04:37:16;1.97;;;1.70;;
16127;SDS011;8168;49.036;7.690;2023-11-21T04:39:47;2.17;;;1.90;;
16127;SDS011;8168;49.036;7.690;2023-11-21T04:42:17;2.47;;;1.97;;
16127;SDS011;8168;49.036;7.690;2023-11-21T04:44:48;2.40;;;1.97;;
16127;SDS011;8168;49.036;7.690;2023-11-21T04:47:19;2.37;;;1.80;;
16127;SDS011;8168;49.036;7.690;2023-11-21T04:49:50;3.33;;;2.07;;
16127;SDS011;8168;49.036;7.690;2023-11-21T04:52:22;3.70;;;2.20;;
16127;SDS011;8168;49.036;7.690;2023-11-21T04:54:52;4.10;;;2.43;;
16127;SDS011;8168;49.036;7.690;2023-11-21T04:57:24;3.67;;;2.47;;
16127;SDS011;8168;49.036;7.690;2023-11-21T04:59:55;2.30;;;2.10;;
16127;SDS011;8168;49.036;7.690;2023-11-21T05:02:25;2.23;;;2.00;;
16127;SDS011;8168;49.036;7.690;2023-11-21T05:04:56;3.13;;;2.33;;
16127;SDS011;8168;49.036;7.690;2023-11-21T05:07:26;2.63;;;2.40;;
16127;SDS011;8168;49.036;7.690;2023-11-21T05:10:00;3.53;;;2.23;;
16127;SDS011;8168;49.036;7.690;2023-11-21T05:12:34;3.90;;;1.97;;
16127;SDS011;8168;49.036;7.690;2023-11-21T05:15:07;2.00;;;1.80;;
16127;SDS011;8168;49.036;7.690;2023-11-21T05:17:42;2.27;;;1.83;;
16127;SDS011;8168;49.036;7.690;2023-11-21T05:20:16;2.80;;;2.40;;
16127;SDS011;8168;49.036;7.690;2023-11-21T05:22:50;2.77;;;1.93;;
16127;SDS011;8168;49.036;7.690;2023-11-21T05:25:21;1.93;;;1.77;;
16127;SDS011;8168;49.036;7.690;2023-11-21T05:27:52;2.87;;;1.70;;
16127;SDS011;8168;49.036;7.690;2023-11-21T05:30:23;2.60;;;1.93;;
16127;SDS011;8168;49.036;7.690;2023-11-21T05:32:54;2.97;;;2.17;;
16127;SDS011;8168;49.036;7.690;2023-11-21T05:35:24;2.50;;;2.10;;
16127;SDS011;8168;49.036;7.690;2023-11-21T05:37:55;5.27;;;1.73;;
16127;SDS011;8168;49.036;7.690;2023-11-21T05:40:25;1.93;;;1.70;;
16127;SDS011;8168;49.036;7.690;2023-11-21T05:42:59;2.53;;;1.97;;
16127;SDS011;8168;49.036;7.690;2023-11-21T05:45:30;2.50;;;2.23;;
16127;SDS011;8168;49.036;7.690;2023-11-21T05:48:00;4.93;;;2.30;;
16127;SDS011;8168;49.036;7.690;2023-11-21T05:50:32;2.30;;;2.10;;
16127;SDS011;8168;49.036;7.690;2023-11-21T05:53:03;5.00;;;2.33;;
16127;SDS011;8168;49.036;7.690;2023-11-21T05:55:34;4.17;;;2.57;;
16127;SDS011;8168;49.036;7.690;2023-11-21T05:58:04;4.03;;;2.50;;
16127;SDS011;8168;49.036;7.690;2023-11-21T06:00:35;3.10;;;2.47;;
16127;SDS011;8168;49.036;7.690;2023-11-21T06:03:06;2.90;;;2.60;;
16127;SDS011;8168;49.036;7.690;2023-11-21T06:05:38;4.50;;;2.67;;
16127;SDS011;8168;49.036;7.690;2023-11-21T06:08:08;3.40;;;2.50;;
16127;SDS011;8168;49.036;7.690;2023-11-21T06:10:39;3.50;;;2.73;;
16127;SDS011;8168;49.036;7.690;2023-11-21T06:13:09;4.00;;;2.90;;
16127;SDS011;8168;49.036;7.690;2023-11-21T06:15:40;4.13;;;2.70;;
16127;SDS011;8168;49.036;7.690;2023-11-21T06:18:11;6.17;;;2.90;;
16127;SDS011;8168;49.036;7.690;2023-11-21T06:20:41;3.67;;;2.97;;
16127;SDS011;8168;49.036;7.690;2023-11-21T06:23:12;3.20;;;2.80;;
16127;SDS011;8168;49.036;7.690;2023-11-21T06:25:44;5.13;;;2.77;;
16127;SDS011;8168;49.036;7.690;2023-11-21T06:28:14;4.37;;;3.10;;
16127;SDS011;8168;49.036;7.690;2023-11-21T06:30:47;3.73;;;2.00;;
16127;SDS011;8168;49.036;7.690;2023-11-21T06:33:19;2.73;;;2.30;;
16127;SDS011;8168;49.036;7.690;2023-11-21T06:35:50;3.60;;;2.93;;
16127;SDS011;8168;49.036;7.690;2023-11-21T06:38:20;3.43;;;2.60;;
16127;SDS011;8168;49.036;7.690;2023-11-21T06:40:51;3.97;;;2.50;;
16127;SDS011;8168;49.036;7.690;2023-11-21T06:43:22;3.30;;;2.50;;
16127;SDS011;8168;49.036;7.690;2023-11-21T06:45:53;4.93;;;2.90;;
16127;SDS011;8168;49.036;7.690;2023-11-21T06:48:24;3.37;;;2.97;;
16127;SDS011;8168;49.036;7.690;2023-11-21T06:50:55;3.93;;;2.97;;
16127;SDS011;8168;49.036;7.690;2023-11-21T06:53:25;6.23;;;2.90;;
16127;SDS011;8168;49.036;7.690;2023-11-21T06:55:56;5.50;;;2.30;;
16127;SDS011;8168;49.036;7.690;2023-11-21T06:58:27;3.33;;;2.30;;
16127;SDS011;8168;49.036;7.690;2023-11-21T07:00:58;2.77;;;2.27;;
16127;SDS011;8168;49.036;7.690;2023-11-21T07:03:28;3.33;;;2.20;;
16127;SDS011;8168;49.036;7.690;2023-11-21T07:05:59;4.27;;;2.20;;
16127;SDS011;8168;49.036;7.690;2023-11-21T07:08:29;2.30;;;2.10;;
16127;SDS011;8168;49.036;7.690;2023-11-21T07:11:00;2.77;;;1.70;;
16127;SDS011;8168;49.036;7.690;2023-11-21T07:13:31;1.80;;;1.70;;
16127;SDS011;8168;49.036;7.690;2023-11-21T07:16:01;2.40;;;1.80;;
16127;SDS011;8168;49.036;7.690;2023-11-21T07:18:33;2.17;;;1.40;;
16127;SDS011;8168;49.036;7.690;2023-11-21T07:21:03;2.07;;;1.50;;
16127;SDS011;8168;49.036;7.690;2023-11-21T07:23:34;2.70;;;1.43;;
16127;SDS011;8168;49.036;7.690;2023-11-21T07:26:06;2.00;;;1.63;;
16127;SDS011;8168;49.036;7.690;2023-11-21T07:28:39;2.30;;;1.40;;
16127;SDS011;8168;49.036;7.690;2023-11-21T07:31:09;1.70;;;1.50;;
16127;SDS011;8168;49.036;7.690;2023-11-21T07:33:40;1.50;;;1.40;;
16127;SDS011;8168;49.036;7.690;2023-11-21T07:36:11;4.63;;;1.60;;
16127;SDS011;8168;49.036;7.690;2023-11-21T07:38:42;2.53;;;1.50;;
16127;SDS011;8168;49.036;7.690;2023-11-21T07:41:12;2.27;;;1.57;;
16127;SDS011;8168;49.036;7.690;2023-11-21T07:43:45;1.30;;;1.20;;
16127;SDS011;8168;49.036;7.690;2023-11-21T07:46:16;1.27;;;1.00;;
16127;SDS011;8168;49.036;7.690;2023-11-21T07:48:47;2.00;;;1.00;;
16127;SDS011;8168;49.036;7.690;2023-11-21T07:51:18;1.20;;;1.10;;
16127;SDS011;8168;49.036;7.690;2023-11-21T07:53:49;1.10;;;1.00;;
16127;SDS011;8168;49.036;7.690;2023-11-21T07:56:19;1.43;;;1.20;;
16127;SDS011;8168;49.036;7.690;2023-11-21T07:58:50;1.87;;;1.30;;
16127;SDS011;8168;49.036;7.690;2023-11-21T08:01:20;1.20;;;1.10;;
16127;SDS011;8168;49.036;7.690;2023-11-21T08:03:51;1.50;;;1.20;;
16127;SDS011;8168;49.036;7.690;2023-11-21T08:06:25;4.07;;;1.40;;
16127;SDS011;8168;49.036;7.690;2023-11-21T08:08:56;3.27;;;1.30;;
16127;SDS011;8168;49.036;7.690;2023-11-21T08:11:27;1.77;;;1.27;;
16127;SDS011;8168;49.036;7.690;2023-11-21T08:14:01;1.10;;;0.93;;
16127;SDS011;8168;49.036;7.690;2023-11-21T08:16:32;1.10;;;1.00;;
16127;SDS011;8168;49.036;7.690;2023-11-21T08:19:02;1.10;;;1.00;;
16127;SDS011;8168;49.036;7.690;2023-11-21T08:21:33;1.10;;;1.00;;
16127;SDS011;8168;49.036;7.690;2023-11-21T08:24:04;1.20;;;0.87;;
16127;SDS011;8168;49.036;7.690;2023-11-21T08:26:36;3.23;;;1.20;;
16127;SDS011;8168;49.036;7.690;2023-11-21T08:29:07;1.30;;;1.20;;
16127;SDS011;8168;49.036;7.690;2023-11-21T08:31:37;1.13;;;0.70;;
16127;SDS011;8168;49.036;7.690;2023-11-21T08:34:08;1.40;;;1.10;;
16127;SDS011;8168;49.036;7.690;2023-11-21T08:36:42;2.90;;;0.70;;
16127;SDS011;8168;49.036;7.690;2023-11-21T08:39:13;1.63;;;1.43;;
16127;SDS011;8168;49.036;7.690;2023-11-21T08:41:46;1.53;;;1.00;;
16127;SDS011;8168;49.036;7.690;2023-11-21T08:44:17;1.40;;;1.10;;
16127;SDS011;8168;49.036;7.690;2023-11-21T08:46:51;1.47;;;1.30;;
16127;SDS011;8168;49.036;7.690;2023-11-21T08:49:22;1.40;;;1.30;;
16127;SDS011;8168;49.036;7.690;2023-11-21T08:51:52;2.10;;;1.13;;
16127;SDS011;8168;49.036;7.690;2023-11-21T08:54:28;1.60;;;1.50;;
16127;SDS011;8168;49.036;7.690;2023-11-21T08:56:59;1.47;;;1.20;;
16127;SDS011;8168;49.036;7.690;2023-11-21T08:59:30;1.73;;;1.17;;
16127;SDS011;8168;49.036;7.690;2023-11-21T09:02:01;1.90;;;1.30;;
16127;SDS011;8168;49.036;7.690;2023-11-21T09:04:31;1.97;;;1.37;;
16127;SDS011;8168;49.036;7.690;2023-11-21T09:07:02;2.07;;;1.47;;
16127;SDS011;8168;49.036;7.690;2023-11-21T09:09:33;2.00;;;1.30;;
16127;SDS011;8168;49.036;7.690;2023-11-21T09:12:04;3.30;;;1.10;;
16127;SDS011;8168;49.036;7.690;2023-11-21T09:14:35;2.83;;;1.40;;
16127;SDS011;8168;49.036;7.690;2023-11-21T09:17:05;2.00;;;1.40;;
16127;SDS011;8168;49.036;7.690;2023-11-21T09:19:41;1.87;;;1.27;;
16127;SDS011;8168;49.036;7.690;2023-11-21T09:22:13;1.27;;;1.17;;
16127;SDS011;8168;49.036;7.690;2023-11-21T09:24:44;1.43;;;1.10;;
16127;SDS011;8168;49.036;7.690;2023-11-21T09:27:14;1.37;;;1.23;;
16127;SDS011;8168;49.036;7.690;2023-11-21T09:29:45;2.20;;;1.13;;
16127;SDS011;8168;49.036;7.690;2023-11-21T09:32:17;1.93;;;1.30;;
16127;SDS011;8168;49.036;7.690;2023-11-21T09:34:49;1.53;;;1.30;;
16127;SDS011;8168;49.036;7.690;2023-11-21T09:37:20;2.03;;;1.50;;
16127;SDS011;8168;49.036;7.690;2023-11-21T09:39:50;1.83;;;1.40;;
16127;SDS011;8168;49.036;7.690;2023-11-21T09:42:40;2.47;;;1.30;;
16127;SDS011;8168;49.036;7.690;2023-11-21T09:48:01;1.30;;;1.20;;
16127;SDS011;8168;49.036;7.690;2023-11-21T09:50:32;1.57;;;1.30;;
16127;SDS011;8168;49.036;7.690;2023-11-21T09:55:46;1.60;;;1.40;;
16127;SDS011;8168;49.036;7.690;2023-11-21T09:58:18;1.20;;;1.10;;
16127;SDS011;8168;49.036;7.690;2023-11-21T10:00:51;1.33;;;1.10;;
16127;SDS011;8168;49.036;7.690;2023-11-21T10:03:24;3.87;;;1.20;;
16127;SDS011;8168;49.036;7.690;2023-11-21T10:05:54;2.37;;;1.20;;
16127;SDS011;8168;49.036;7.690;2023-11-21T10:08:30;1.73;;;1.30;;
16127;SDS011;8168;49.036;7.690;2023-11-21T10:11:03;1.60;;;1.50;;
16127;SDS011;8168;49.036;7.690;2023-11-21T10:13:37;2.50;;;1.20;;
16127;SDS011;8168;49.036;7.690;2023-11-21T10:16:08;1.50;;;1.30;;
16127;SDS011;8168;49.036;7.690;2023-11-21T10:18:41;1.13;;;1.03;;
16127;SDS011;8168;49.036;7.690;2023-11-21T10:21:14;1.47;;;1.03;;
16127;SDS011;8168;49.036;7.690;2023-11-21T10:23:46;2.20;;;1.10;;
16127;SDS011;8168;49.036;7.690;2023-11-21T10:26:17;1.27;;;1.10;;
16127;SDS011;8168;49.036;7.690;2023-11-21T10:28:57;2.90;;;1.20;;
16127;SDS011;8168;49.036;7.690;2023-11-21T10:31:29;1.43;;;1.33;;
16127;SDS011;8168;49.036;7.690;2023-11-21T10:36:42;1.30;;;1.20;;
16127;SDS011;8168;49.036;7.690;2023-11-21T10:39:14;1.73;;;1.20;;
16127;SDS011;8168;49.036;7.690;2023-11-21T10:41:48;1.47;;;1.27;;
16127;SDS011;8168;49.036;7.690;2023-11-21T10:44:19;1.63;;;1.10;;
16127;SDS011;8168;49.036;7.690;2023-11-21T10:46:54;1.20;;;1.10;;
16127;SDS011;8168;49.036;7.690;2023-11-21T10:49:29;1.37;;;1.10;;
16127;SDS011;8168;49.036;7.690;2023-11-21T10:52:00;1.60;;;1.10;;
16127;SDS011;8168;49.036;7.690;2023-11-21T10:54:30;1.07;;;1.03;;
16127;SDS011;8168;49.036;7.690;2023-11-21T10:57:01;1.00;;;1.00;;
16127;SDS011;8168;49.036;7.690;2023-11-21T10:59:34;2.63;;;1.37;;
16127;SDS011;8168;49.036;7.690;2023-11-21T11:02:11;1.30;;;1.20;;
16127;SDS011;8168;49.036;7.690;2023-11-21T11:05:02;1.93;;;1.20;;
16127;SDS011;8168;49.036;7.690;2023-11-21T11:07:36;1.17;;;1.07;;
16127;SDS011;8168;49.036;7.690;2023-11-21T11:10:09;2.17;;;0.87;;
16127;SDS011;8168;49.036;7.690;2023-11-21T11:12:45;1.57;;;1.17;;
16127;SDS011;8168;49.036;7.690;2023-11-21T11:15:17;1.37;;;1.27;;
16127;SDS011;8168;49.036;7.690;2023-11-21T11:17:49;1.03;;;1.03;;
16127;SDS011;8168;49.036;7.690;2023-11-21T11:20:20;0.80;;;0.80;;
16127;SDS011;8168;49.036;7.690;2023-11-21T11:29:08;1.53;;;1.10;;
16127;SDS011;8168;49.036;7.690;2023-11-21T11:35:24;4.50;;;1.00;;
16127;SDS011;8168;49.036;7.690;2023-11-21T11:38:03;0.93;;;0.90;;
16127;SDS011;8168;49.036;7.690;2023-11-21T11:40:40;1.17;;;1.10;;
16127;SDS011;8168;49.036;7.690;2023-11-21T11:43:17;1.30;;;0.90;;
16127;SDS011;8168;49.036;7.690;2023-11-21T11:45:58;1.33;;;1.00;;
16127;SDS011;8168;49.036;7.690;2023-11-21T11:48:39;0.90;;;0.83;;
16127;SDS011;8168;49.036;7.690;2023-11-21T11:51:11;0.83;;;0.83;;
16127;SDS011;8168;49.036;7.690;2023-11-21T11:53:51;0.70;;;0.70;;
16127;SDS011;8168;49.036;7.690;2023-11-21T11:58:57;0.80;;;0.70;;
16127;SDS011;8168;49.036;7.690;2023-11-21T12:01:31;3.00;;;0.90;;
16127;SDS011;8168;49.036;7.690;2023-11-21T12:06:53;0.70;;;0.70;;
16127;SDS011;8168;49.036;7.690;2023-11-21T12:09:26;1.77;;;1.10;;
16127;SDS011;8168;49.036;7.690;2023-11-21T12:11:57;1.30;;;1.20;;
16127;SDS011;8168;49.036;7.690;2023-11-21T12:14:27;1.70;;;0.80;;
16127;SDS011;8168;49.036;7.690;2023-11-21T12:16:58;2.17;;;1.17;;
16127;SDS011;8168;49.036;7.690;2023-11-21T12:19:30;1.30;;;0.90;;
16127;SDS011;8168;49.036;7.690;2023-11-21T12:22:01;0.67;;;0.67;;
16127;SDS011;8168;49.036;7.690;2023-11-21T12:24:32;6.10;;;2.33;;
16127;SDS011;8168;49.036;7.690;2023-11-21T12:27:02;1.73;;;1.07;;
16127;SDS011;8168;49.036;7.690;2023-11-21T12:29:33;1.37;;;0.90;;
16127;SDS011;8168;49.036;7.690;2023-11-21T12:32:04;1.33;;;0.70;;
16127;SDS011;8168;49.036;7.690;2023-11-21T12:34:36;0.83;;;0.83;;
16127;SDS011;8168;49.036;7.690;2023-11-21T12:37:08;0.70;;;0.70;;
16127;SDS011;8168;49.036;7.690;2023-11-21T12:39:40;1.03;;;0.60;;
16127;SDS011;8168;49.036;7.690;2023-11-21T12:42:11;1.13;;;0.60;;
16127;SDS011;8168;49.036;7.690;2023-11-21T12:44:42;0.80;;;0.70;;
16127;SDS011;8168;49.036;7.690;2023-11-21T12:47:16;2.43;;;0.80;;
16127;SDS011;8168;49.036;7.690;2023-11-21T12:49:48;0.77;;;0.77;;
16127;SDS011;8168;49.036;7.690;2023-11-21T12:52:18;0.80;;;0.80;;
16127;SDS011;8168;49.036;7.690;2023-11-21T12:54:49;3.33;;;0.77;;
16127;SDS011;8168;49.036;7.690;2023-11-21T12:57:20;0.63;;;0.60;;
16127;SDS011;8168;49.036;7.690;2023-11-21T12:59:50;1.90;;;1.50;;
16127;SDS011;8168;49.036;7.690;2023-11-21T13:02:26;2.43;;;0.80;;
16127;SDS011;8168;49.036;7.690;2023-11-21T13:04:57;0.97;;;0.80;;
16127;SDS011;8168;49.036;7.690;2023-11-21T13:07:28;2.10;;;0.80;;
16127;SDS011;8168;49.036;7.690;2023-11-21T13:09:59;2.00;;;0.60;;
16127;SDS011;8168;49.036;7.690;2023-11-21T13:12:29;1.60;;;0.70;;
16127;SDS011;8168;49.036;7.690;2023-11-21T13:15:06;0.97;;;0.87;;
16127;SDS011;8168;49.036;7.690;2023-11-21T13:17:37;0.73;;;0.70;;
16127;SDS011;8168;49.036;7.690;2023-11-21T13:20:08;2.53;;;1.63;;
16127;SDS011;8168;49.036;7.690;2023-11-21T13:22:58;1.50;;;0.70;;
16127;SDS011;8168;49.036;7.690;2023-11-21T13:25:32;0.73;;;0.70;;
16127;SDS011;8168;49.036;7.690;2023-11-21T13:28:03;2.17;;;1.10;;
16127;SDS011;8168;49.036;7.690;2023-11-21T13:30:34;3.57;;;0.80;;
16127;SDS011;8168;49.036;7.690;2023-11-21T13:33:05;1.90;;;1.17;;
16127;SDS011;8168;49.036;7.690;2023-11-21T13:35:38;0.77;;;0.67;;
16127;SDS011;8168;49.036;7.690;2023-11-21T13:38:21;1.57;;;1.00;;
16127;SDS011;8168;49.036;7.690;2023-11-21T13:41:00;1.27;;;1.10;;
16127;SDS011;8168;49.036;7.690;2023-11-21T13:43:30;1.27;;;0.73;;
16127;SDS011;8168;49.036;7.690;2023-11-21T13:46:01;16.57;;;5.30;;
16127;SDS011;8168;49.036;7.690;2023-11-21T13:48:34;1.33;;;0.73;;
16127;SDS011;8168;49.036;7.690;2023-11-21T13:51:12;5.93;;;2.50;;
16127;SDS011;8168;49.036;7.690;2023-11-21T13:53:50;1.37;;;0.80;;
16127;SDS011;8168;49.036;7.690;2023-11-21T13:56:22;2.90;;;1.33;;
16127;SDS011;8168;49.036;7.690;2023-11-21T13:58:54;1.70;;;1.00;;
16127;SDS011;8168;49.036;7.690;2023-11-21T14:01:25;6.20;;;2.90;;
16127;SDS011;8168;49.036;7.690;2023-11-21T14:04:00;0.83;;;0.80;;
16127;SDS011;8168;49.036;7.690;2023-11-21T14:06:47;1.90;;;0.90;;
16127;SDS011;8168;49.036;7.690;2023-11-21T14:09:20;2.77;;;1.50;;
16127;SDS011;8168;49.036;7.690;2023-11-21T14:11:53;0.97;;;0.93;;
16127;SDS011;8168;49.036;7.690;2023-11-21T14:14:26;4.93;;;3.10;;
16127;SDS011;8168;49.036;7.690;2023-11-21T14:16:58;1.27;;;1.03;;
16127;SDS011;8168;49.036;7.690;2023-11-21T14:19:36;1.47;;;1.10;;
16127;SDS011;8168;49.036;7.690;2023-11-21T14:22:10;4.37;;;2.37;;
16127;SDS011;8168;49.036;7.690;2023-11-21T14:24:41;4.50;;;1.30;;
16127;SDS011;8168;49.036;7.690;2023-11-21T14:27:15;1.80;;;1.20;;
16127;SDS011;8168;49.036;7.690;2023-11-21T14:29:46;2.40;;;0.70;;
16127;SDS011;8168;49.036;7.690;2023-11-21T14:32:17;1.43;;;1.03;;
16127;SDS011;8168;49.036;7.690;2023-11-21T14:34:48;2.37;;;1.20;;
16127;SDS011;8168;49.036;7.690;2023-11-21T14:37:20;1.07;;;0.77;;
16127;SDS011;8168;49.036;7.690;2023-11-21T14:39:50;0.90;;;0.70;;
16127;SDS011;8168;49.036;7.690;2023-11-21T14:42:21;1.20;;;0.93;;
16127;SDS011;8168;49.036;7.690;2023-11-21T14:44:55;3.83;;;1.00;;
16127;SDS011;8168;49.036;7.690;2023-11-21T14:47:33;1.37;;;1.00;;
16127;SDS011;8168;49.036;7.690;2023-11-21T14:50:04;4.87;;;1.10;;
16127;SDS011;8168;49.036;7.690;2023-11-21T14:52:55;2.47;;;1.33;;
16127;SDS011;8168;49.036;7.690;2023-11-21T14:55:29;2.50;;;1.03;;
16127;SDS011;8168;49.036;7.690;2023-11-21T14:58:09;1.53;;;1.00;;
16127;SDS011;8168;49.036;7.690;2023-11-21T15:00:43;3.53;;;1.10;;
16127;SDS011;8168;49.036;7.690;2023-11-21T15:03:14;6.13;;;1.13;;
16127;SDS011;8168;49.036;7.690;2023-11-21T15:06:05;2.30;;;1.10;;
16127;SDS011;8168;49.036;7.690;2023-11-21T15:08:55;2.57;;;0.90;;
16127;SDS011;8168;49.036;7.690;2023-11-21T15:11:39;2.33;;;1.00;;
16127;SDS011;8168;49.036;7.690;2023-11-21T15:14:11;2.00;;;1.20;;
16127;SDS011;8168;49.036;7.690;2023-11-21T15:16:46;2.70;;;1.53;;
16127;SDS011;8168;49.036;7.690;2023-11-21T15:19:21;6.03;;;2.47;;
16127;SDS011;8168;49.036;7.690;2023-11-21T15:21:56;4.03;;;2.43;;
16127;SDS011;8168;49.036;7.690;2023-11-21T15:24:26;5.93;;;2.97;;
16127;SDS011;8168;49.036;7.690;2023-11-21T15:26:57;2.70;;;2.40;;
16127;SDS011;8168;49.036;7.690;2023-11-21T15:29:29;5.20;;;1.13;;
16127;SDS011;8168;49.036;7.690;2023-11-21T15:31:59;2.53;;;1.37;;
16127;SDS011;8168;49.036;7.690;2023-11-21T15:34:31;3.73;;;1.80;;
16127;SDS011;8168;49.036;7.690;2023-11-21T15:37:01;2.43;;;1.43;;
16127;SDS011;8168;49.036;7.690;2023-11-21T15:39:33;4.40;;;1.50;;
16127;SDS011;8168;49.036;7.690;2023-11-21T15:42:03;1.57;;;1.13;;
16127;SDS011;8168;49.036;7.690;2023-11-21T15:44:37;2.57;;;1.60;;
16127;SDS011;8168;49.036;7.690;2023-11-21T15:47:08;2.30;;;1.40;;
16127;SDS011;8168;49.036;7.690;2023-11-21T15:49:39;4.30;;;1.57;;
16127;SDS011;8168;49.036;7.690;2023-11-21T15:52:10;1.93;;;1.50;;